sensor_id;sensor_type;location;lat;lon;timestamp;P1;durP1;ratioP1;P2;durP2;ratioP2
46322;SDS011;32044;52.386;13.278;2023-02-24T00:00:13;98.45;;;32.13;;
46322;SDS011;32044;52.386;13.278;2023-02-24T00:03:03;98.38;;;33.15;;
46322;SDS011;32044;52.386;13.278;2023-02-24T00:05:35;89.75;;;30.77;;
46322;SDS011;32044;52.386;13.278;2023-02-24T00:08:04;97.88;;;31.55;;
46322;SDS011;32044;52.386;13.278;2023-02-24T00:10:32;82.95;;;29.38;;
46322;SDS011;32044;52.386;13.278;2023-02-24T00:13:03;88.22;;;30.77;;
46322;SDS011;32044;52.386;13.278;2023-02-24T00:15:31;89.80;;;30.52;;
46322;SDS011;32044;52.386;13.278;2023-02-24T00:17:59;88.40;;;30.70;;
46322;SDS011;32044;52.386;13.278;2023-02-24T00:20:32;93.10;;;30.55;;
46322;SDS011;32044;52.386;13.278;2023-02-24T00:22:59;88.28;;;29.92;;
46322;SDS011;32044;52.386;13.278;2023-02-24T00:25:27;88.85;;;31.38;;
46322;SDS011;32044;52.386;13.278;2023-02-24T00:27:54;84.05;;;30.15;;
46322;SDS011;32044;52.386;13.278;2023-02-24T00:30:28;88.30;;;30.25;;
46322;SDS011;32044;52.386;13.278;2023-02-24T00:32:58;91.72;;;30.77;;
46322;SDS011;32044;52.386;13.278;2023-02-24T00:35:28;86.35;;;29.55;;
46322;SDS011;32044;52.386;13.278;2023-02-24T00:37:56;83.90;;;29.42;;
46322;SDS011;32044;52.386;13.278;2023-02-24T00:40:23;96.18;;;31.55;;
46322;SDS011;32044;52.386;13.278;2023-02-24T00:42:51;95.75;;;31.70;;
46322;SDS011;32044;52.386;13.278;2023-02-24T00:45:20;93.78;;;30.17;;
46322;SDS011;32044;52.386;13.278;2023-02-24T00:47:48;91.60;;;29.92;;
46322;SDS011;32044;52.386;13.278;2023-02-24T00:50:16;83.57;;;28.35;;
46322;SDS011;32044;52.386;13.278;2023-02-24T00:52:43;88.60;;;28.38;;
46322;SDS011;32044;52.386;13.278;2023-02-24T00:55:11;91.95;;;30.58;;
46322;SDS011;32044;52.386;13.278;2023-02-24T00:57:40;94.30;;;28.52;;
46322;SDS011;32044;52.386;13.278;2023-02-24T01:00:08;85.15;;;28.42;;
46322;SDS011;32044;52.386;13.278;2023-02-24T01:02:41;80.90;;;27.15;;
46322;SDS011;32044;52.386;13.278;2023-02-24T01:05:12;75.13;;;24.08;;
46322;SDS011;32044;52.386;13.278;2023-02-24T01:07:40;64.38;;;21.73;;
46322;SDS011;32044;52.386;13.278;2023-02-24T01:10:09;65.00;;;20.15;;
46322;SDS011;32044;52.386;13.278;2023-02-24T01:12:37;64.97;;;19.73;;
46322;SDS011;32044;52.386;13.278;2023-02-24T01:15:14;59.58;;;18.52;;
46322;SDS011;32044;52.386;13.278;2023-02-24T01:17:43;62.55;;;17.80;;
46322;SDS011;32044;52.386;13.278;2023-02-24T01:20:11;63.10;;;18.08;;
46322;SDS011;32044;52.386;13.278;2023-02-24T01:22:45;58.58;;;17.20;;
46322;SDS011;32044;52.386;13.278;2023-02-24T01:25:13;73.75;;;16.35;;
46322;SDS011;32044;52.386;13.278;2023-02-24T01:27:41;54.20;;;15.38;;
46322;SDS011;32044;52.386;13.278;2023-02-24T01:30:09;52.88;;;12.80;;
46322;SDS011;32044;52.386;13.278;2023-02-24T01:32:41;56.10;;;13.25;;
46322;SDS011;32044;52.386;13.278;2023-02-24T01:35:09;54.53;;;11.93;;
46322;SDS011;32044;52.386;13.278;2023-02-24T01:37:41;34.20;;;10.60;;
46322;SDS011;32044;52.386;13.278;2023-02-24T01:40:10;43.33;;;9.65;;
46322;SDS011;32044;52.386;13.278;2023-02-24T01:42:43;35.20;;;9.02;;
46322;SDS011;32044;52.386;13.278;2023-02-24T01:45:16;31.07;;;7.27;;
46322;SDS011;32044;52.386;13.278;2023-02-24T01:47:46;30.23;;;8.32;;
46322;SDS011;32044;52.386;13.278;2023-02-24T01:50:15;48.90;;;9.32;;
46322;SDS011;32044;52.386;13.278;2023-02-24T01:52:44;53.25;;;9.32;;
46322;SDS011;32044;52.386;13.278;2023-02-24T01:55:13;46.85;;;8.88;;
46322;SDS011;32044;52.386;13.278;2023-02-24T01:57:45;48.47;;;8.50;;
46322;SDS011;32044;52.386;13.278;2023-02-24T02:00:14;46.95;;;8.90;;
46322;SDS011;32044;52.386;13.278;2023-02-24T02:02:57;44.88;;;9.18;;
46322;SDS011;32044;52.386;13.278;2023-02-24T02:05:27;40.45;;;8.05;;
46322;SDS011;32044;52.386;13.278;2023-02-24T02:07:56;45.75;;;6.90;;
46322;SDS011;32044;52.386;13.278;2023-02-24T02:10:23;30.48;;;6.13;;
46322;SDS011;32044;52.386;13.278;2023-02-24T02:12:53;29.02;;;6.70;;
46322;SDS011;32044;52.386;13.278;2023-02-24T02:15:21;37.85;;;7.63;;
46322;SDS011;32044;52.386;13.278;2023-02-24T02:17:50;29.67;;;5.70;;
46322;SDS011;32044;52.386;13.278;2023-02-24T02:20:40;37.90;;;5.88;;
46322;SDS011;32044;52.386;13.278;2023-02-24T02:23:50;31.20;;;6.50;;
46322;SDS011;32044;52.386;13.278;2023-02-24T02:29:30;30.83;;;4.55;;
46322;SDS011;32044;52.386;13.278;2023-02-24T02:32:22;26.27;;;5.82;;
46322;SDS011;32044;52.386;13.278;2023-02-24T02:35:05;28.35;;;5.20;;
46322;SDS011;32044;52.386;13.278;2023-02-24T02:37:35;29.25;;;4.60;;
46322;SDS011;32044;52.386;13.278;2023-02-24T02:40:09;31.40;;;5.05;;
46322;SDS011;32044;52.386;13.278;2023-02-24T02:42:45;29.88;;;4.75;;
46322;SDS011;32044;52.386;13.278;2023-02-24T02:45:16;35.75;;;4.53;;
46322;SDS011;32044;52.386;13.278;2023-02-24T02:47:47;25.70;;;4.35;;
46322;SDS011;32044;52.386;13.278;2023-02-24T02:50:21;20.90;;;4.32;;
46322;SDS011;32044;52.386;13.278;2023-02-24T02:52:52;28.23;;;4.82;;
46322;SDS011;32044;52.386;13.278;2023-02-24T02:55:23;26.58;;;4.30;;
46322;SDS011;32044;52.386;13.278;2023-02-24T02:57:53;11.77;;;2.85;;
46322;SDS011;32044;52.386;13.278;2023-02-24T03:00:22;16.27;;;3.58;;
46322;SDS011;32044;52.386;13.278;2023-02-24T03:05:25;22.73;;;4.15;;
46322;SDS011;32044;52.386;13.278;2023-02-24T03:07:56;18.73;;;3.30;;
46322;SDS011;32044;52.386;13.278;2023-02-24T03:10:26;32.83;;;4.25;;
46322;SDS011;32044;52.386;13.278;2023-02-24T03:12:54;22.38;;;4.10;;
46322;SDS011;32044;52.386;13.278;2023-02-24T03:15:24;23.02;;;3.70;;
46322;SDS011;32044;52.386;13.278;2023-02-24T03:17:53;17.90;;;3.30;;
46322;SDS011;32044;52.386;13.278;2023-02-24T03:20:30;28.33;;;4.65;;
46322;SDS011;32044;52.386;13.278;2023-02-24T03:25:31;21.33;;;3.22;;
46322;SDS011;32044;52.386;13.278;2023-02-24T03:28:06;22.77;;;4.13;;
46322;SDS011;32044;52.386;13.278;2023-02-24T03:30:39;21.60;;;4.25;;
46322;SDS011;32044;52.386;13.278;2023-02-24T03:33:08;24.38;;;4.28;;
46322;SDS011;32044;52.386;13.278;2023-02-24T03:35:43;18.73;;;4.13;;
46322;SDS011;32044;52.386;13.278;2023-02-24T03:38:10;20.90;;;3.78;;
46322;SDS011;32044;52.386;13.278;2023-02-24T03:40:39;20.33;;;3.40;;
46322;SDS011;32044;52.386;13.278;2023-02-24T03:43:09;20.55;;;4.00;;
46322;SDS011;32044;52.386;13.278;2023-02-24T03:45:42;20.20;;;3.33;;
46322;SDS011;32044;52.386;13.278;2023-02-24T03:48:11;17.15;;;3.28;;
46322;SDS011;32044;52.386;13.278;2023-02-24T03:50:40;20.05;;;4.05;;
46322;SDS011;32044;52.386;13.278;2023-02-24T03:53:16;17.67;;;3.35;;
46322;SDS011;32044;52.386;13.278;2023-02-24T03:55:57;21.48;;;3.55;;
46322;SDS011;32044;52.386;13.278;2023-02-24T03:58:38;18.45;;;3.85;;
46322;SDS011;32044;52.386;13.278;2023-02-24T04:01:12;28.88;;;4.28;;
46322;SDS011;32044;52.386;13.278;2023-02-24T04:03:45;25.77;;;3.85;;
46322;SDS011;32044;52.386;13.278;2023-02-24T04:06:17;22.92;;;4.47;;
46322;SDS011;32044;52.386;13.278;2023-02-24T04:08:49;18.13;;;3.90;;
46322;SDS011;32044;52.386;13.278;2023-02-24T04:11:21;23.35;;;3.38;;
46322;SDS011;32044;52.386;13.278;2023-02-24T04:13:53;20.20;;;3.72;;
46322;SDS011;32044;52.386;13.278;2023-02-24T04:16:26;15.93;;;3.85;;
46322;SDS011;32044;52.386;13.278;2023-02-24T04:19:03;14.40;;;2.90;;
46322;SDS011;32044;52.386;13.278;2023-02-24T04:21:31;20.27;;;3.72;;
46322;SDS011;32044;52.386;13.278;2023-02-24T04:24:01;20.98;;;2.95;;
46322;SDS011;32044;52.386;13.278;2023-02-24T04:26:32;12.35;;;2.85;;
46322;SDS011;32044;52.386;13.278;2023-02-24T04:29:01;22.27;;;2.78;;
46322;SDS011;32044;52.386;13.278;2023-02-24T04:31:29;12.55;;;2.88;;
46322;SDS011;32044;52.386;13.278;2023-02-24T04:33:58;13.18;;;2.92;;
46322;SDS011;32044;52.386;13.278;2023-02-24T04:36:25;19.00;;;2.95;;
46322;SDS011;32044;52.386;13.278;2023-02-24T04:38:53;13.23;;;2.85;;
46322;SDS011;32044;52.386;13.278;2023-02-24T04:41:22;15.30;;;3.03;;
46322;SDS011;32044;52.386;13.278;2023-02-24T04:43:49;15.35;;;2.80;;
46322;SDS011;32044;52.386;13.278;2023-02-24T04:46:17;10.45;;;3.15;;
46322;SDS011;32044;52.386;13.278;2023-02-24T04:48:45;17.42;;;3.70;;
46322;SDS011;32044;52.386;13.278;2023-02-24T04:51:13;18.20;;;3.17;;
46322;SDS011;32044;52.386;13.278;2023-02-24T04:53:41;11.93;;;3.67;;
46322;SDS011;32044;52.386;13.278;2023-02-24T04:56:08;14.38;;;2.75;;
46322;SDS011;32044;52.386;13.278;2023-02-24T04:58:38;18.10;;;2.97;;
46322;SDS011;32044;52.386;13.278;2023-02-24T05:01:07;15.57;;;2.58;;
46322;SDS011;32044;52.386;13.278;2023-02-24T05:03:36;19.73;;;2.67;;
46322;SDS011;32044;52.386;13.278;2023-02-24T05:06:10;18.45;;;3.30;;
46322;SDS011;32044;52.386;13.278;2023-02-24T05:08:41;14.88;;;2.60;;
46322;SDS011;32044;52.386;13.278;2023-02-24T05:11:11;13.77;;;2.53;;
46322;SDS011;32044;52.386;13.278;2023-02-24T05:13:42;19.13;;;3.30;;
46322;SDS011;32044;52.386;13.278;2023-02-24T05:16:13;16.10;;;2.72;;
46322;SDS011;32044;52.386;13.278;2023-02-24T05:18:45;11.80;;;2.67;;
46322;SDS011;32044;52.386;13.278;2023-02-24T05:21:14;9.52;;;2.58;;
46322;SDS011;32044;52.386;13.278;2023-02-24T05:24:00;20.38;;;2.90;;
46322;SDS011;32044;52.386;13.278;2023-02-24T05:26:32;19.20;;;2.40;;
46322;SDS011;32044;52.386;13.278;2023-02-24T05:29:02;15.63;;;2.63;;
46322;SDS011;32044;52.386;13.278;2023-02-24T05:31:31;7.63;;;1.70;;
46322;SDS011;32044;52.386;13.278;2023-02-24T05:34:00;15.43;;;3.03;;
46322;SDS011;32044;52.386;13.278;2023-02-24T05:36:29;11.80;;;2.10;;
46322;SDS011;32044;52.386;13.278;2023-02-24T05:38:57;11.10;;;2.50;;
46322;SDS011;32044;52.386;13.278;2023-02-24T05:41:33;11.35;;;2.33;;
46322;SDS011;32044;52.386;13.278;2023-02-24T05:44:05;13.80;;;2.20;;
46322;SDS011;32044;52.386;13.278;2023-02-24T05:46:35;10.80;;;2.33;;
46322;SDS011;32044;52.386;13.278;2023-02-24T05:49:05;11.38;;;2.10;;
46322;SDS011;32044;52.386;13.278;2023-02-24T05:51:35;15.48;;;2.45;;
46322;SDS011;32044;52.386;13.278;2023-02-24T05:54:05;13.80;;;2.05;;
46322;SDS011;32044;52.386;13.278;2023-02-24T05:56:34;15.68;;;2.88;;
46322;SDS011;32044;52.386;13.278;2023-02-24T05:59:06;13.88;;;1.77;;
46322;SDS011;32044;52.386;13.278;2023-02-24T06:01:37;14.13;;;2.65;;
46322;SDS011;32044;52.386;13.278;2023-02-24T06:04:07;13.93;;;2.45;;
46322;SDS011;32044;52.386;13.278;2023-02-24T06:06:36;13.65;;;2.15;;
46322;SDS011;32044;52.386;13.278;2023-02-24T06:09:05;14.27;;;2.67;;
46322;SDS011;32044;52.386;13.278;2023-02-24T06:11:36;11.93;;;1.95;;
46322;SDS011;32044;52.386;13.278;2023-02-24T06:14:04;15.73;;;2.55;;
46322;SDS011;32044;52.386;13.278;2023-02-24T06:16:33;14.18;;;2.50;;
46322;SDS011;32044;52.386;13.278;2023-02-24T06:19:02;18.23;;;2.92;;
46322;SDS011;32044;52.386;13.278;2023-02-24T06:21:30;19.02;;;2.72;;
46322;SDS011;32044;52.386;13.278;2023-02-24T06:23:59;9.25;;;2.00;;
46322;SDS011;32044;52.386;13.278;2023-02-24T06:26:27;11.80;;;2.88;;
46322;SDS011;32044;52.386;13.278;2023-02-24T06:28:58;9.50;;;1.98;;
46322;SDS011;32044;52.386;13.278;2023-02-24T06:31:27;11.93;;;3.03;;
46322;SDS011;32044;52.386;13.278;2023-02-24T06:33:55;10.60;;;3.13;;
46322;SDS011;32044;52.386;13.278;2023-02-24T06:36:22;10.57;;;2.70;;
46322;SDS011;32044;52.386;13.278;2023-02-24T06:38:50;8.00;;;2.50;;
46322;SDS011;32044;52.386;13.278;2023-02-24T06:41:17;13.07;;;1.98;;
46322;SDS011;32044;52.386;13.278;2023-02-24T06:43:45;9.52;;;1.98;;
46322;SDS011;32044;52.386;13.278;2023-02-24T06:46:14;11.98;;;2.20;;
46322;SDS011;32044;52.386;13.278;2023-02-24T06:48:43;15.15;;;2.25;;
46322;SDS011;32044;52.386;13.278;2023-02-24T06:51:14;5.55;;;1.42;;
46322;SDS011;32044;52.386;13.278;2023-02-24T06:53:42;9.18;;;2.28;;
46322;SDS011;32044;52.386;13.278;2023-02-24T06:56:10;11.85;;;2.58;;
46322;SDS011;32044;52.386;13.278;2023-02-24T06:58:41;12.90;;;2.67;;
46322;SDS011;32044;52.386;13.278;2023-02-24T07:01:10;12.50;;;2.50;;
46322;SDS011;32044;52.386;13.278;2023-02-24T07:03:39;14.02;;;2.10;;
46322;SDS011;32044;52.386;13.278;2023-02-24T07:06:28;11.68;;;1.95;;
46322;SDS011;32044;52.386;13.278;2023-02-24T07:08:57;9.38;;;1.70;;
46322;SDS011;32044;52.386;13.278;2023-02-24T07:11:26;9.40;;;1.80;;
46322;SDS011;32044;52.386;13.278;2023-02-24T07:13:55;11.57;;;2.33;;
46322;SDS011;32044;52.386;13.278;2023-02-24T07:16:22;18.13;;;2.75;;
46322;SDS011;32044;52.386;13.278;2023-02-24T07:18:52;11.48;;;2.85;;
46322;SDS011;32044;52.386;13.278;2023-02-24T07:21:21;10.82;;;2.55;;
46322;SDS011;32044;52.386;13.278;2023-02-24T07:23:51;7.95;;;2.75;;
46322;SDS011;32044;52.386;13.278;2023-02-24T07:26:24;10.18;;;2.72;;
46322;SDS011;32044;52.386;13.278;2023-02-24T07:28:55;7.45;;;2.70;;
46322;SDS011;32044;52.386;13.278;2023-02-24T07:31:23;9.38;;;2.80;;
46322;SDS011;32044;52.386;13.278;2023-02-24T07:33:52;13.30;;;2.60;;
46322;SDS011;32044;52.386;13.278;2023-02-24T07:36:22;10.13;;;2.53;;
46322;SDS011;32044;52.386;13.278;2023-02-24T07:38:57;9.68;;;2.45;;
46322;SDS011;32044;52.386;13.278;2023-02-24T07:41:25;14.13;;;3.53;;
46322;SDS011;32044;52.386;13.278;2023-02-24T07:43:55;13.27;;;2.70;;
46322;SDS011;32044;52.386;13.278;2023-02-24T07:46:26;14.05;;;2.25;;
46322;SDS011;32044;52.386;13.278;2023-02-24T07:48:55;14.45;;;3.25;;
46322;SDS011;32044;52.386;13.278;2023-02-24T07:51:25;9.80;;;2.20;;
46322;SDS011;32044;52.386;13.278;2023-02-24T07:53:55;7.65;;;2.17;;
46322;SDS011;32044;52.386;13.278;2023-02-24T07:56:27;7.50;;;2.53;;
46322;SDS011;32044;52.386;13.278;2023-02-24T07:58:57;7.70;;;2.40;;
46322;SDS011;32044;52.386;13.278;2023-02-24T08:01:25;15.85;;;3.05;;
46322;SDS011;32044;52.386;13.278;2023-02-24T08:03:55;19.70;;;2.90;;
46322;SDS011;32044;52.386;13.278;2023-02-24T08:06:24;13.77;;;3.00;;
46322;SDS011;32044;52.386;13.278;2023-02-24T08:09:04;6.72;;;2.30;;
46322;SDS011;32044;52.386;13.278;2023-02-24T08:11:44;15.80;;;2.78;;
46322;SDS011;32044;52.386;13.278;2023-02-24T08:14:12;10.23;;;2.28;;
46322;SDS011;32044;52.386;13.278;2023-02-24T08:16:40;10.02;;;2.70;;
46322;SDS011;32044;52.386;13.278;2023-02-24T08:19:09;11.43;;;2.25;;
46322;SDS011;32044;52.386;13.278;2023-02-24T08:21:40;12.32;;;2.15;;
46322;SDS011;32044;52.386;13.278;2023-02-24T08:24:14;12.95;;;2.78;;
46322;SDS011;32044;52.386;13.278;2023-02-24T08:26:44;12.02;;;2.30;;
46322;SDS011;32044;52.386;13.278;2023-02-24T08:29:13;7.93;;;2.40;;
46322;SDS011;32044;52.386;13.278;2023-02-24T08:31:45;8.63;;;2.25;;
46322;SDS011;32044;52.386;13.278;2023-02-24T08:34:15;7.95;;;2.30;;
46322;SDS011;32044;52.386;13.278;2023-02-24T08:36:42;15.40;;;2.80;;
46322;SDS011;32044;52.386;13.278;2023-02-24T08:39:15;11.27;;;2.90;;
46322;SDS011;32044;52.386;13.278;2023-02-24T08:41:44;14.75;;;2.72;;
46322;SDS011;32044;52.386;13.278;2023-02-24T08:46:45;15.32;;;2.78;;
46322;SDS011;32044;52.386;13.278;2023-02-24T08:49:15;11.80;;;2.47;;
46322;SDS011;32044;52.386;13.278;2023-02-24T08:51:44;10.48;;;2.40;;
46322;SDS011;32044;52.386;13.278;2023-02-24T08:54:13;10.20;;;3.10;;
46322;SDS011;32044;52.386;13.278;2023-02-24T08:56:44;11.20;;;2.72;;
46322;SDS011;32044;52.386;13.278;2023-02-24T08:59:15;17.60;;;2.75;;
46322;SDS011;32044;52.386;13.278;2023-02-24T09:02:05;13.00;;;2.70;;
46322;SDS011;32044;52.386;13.278;2023-02-24T09:04:53;9.73;;;3.00;;
46322;SDS011;32044;52.386;13.278;2023-02-24T09:07:23;12.07;;;2.60;;
46322;SDS011;32044;52.386;13.278;2023-02-24T09:09:53;13.70;;;2.67;;
46322;SDS011;32044;52.386;13.278;2023-02-24T09:12:22;9.45;;;2.53;;
46322;SDS011;32044;52.386;13.278;2023-02-24T09:14:52;11.80;;;2.67;;
46322;SDS011;32044;52.386;13.278;2023-02-24T09:17:22;16.67;;;2.85;;
46322;SDS011;32044;52.386;13.278;2023-02-24T09:20:35;15.13;;;3.35;;
46322;SDS011;32044;52.386;13.278;2023-02-24T09:23:21;8.95;;;2.65;;
46322;SDS011;32044;52.386;13.278;2023-02-24T09:25:55;8.10;;;2.20;;
46322;SDS011;32044;52.386;13.278;2023-02-24T09:28:23;13.55;;;2.92;;
46322;SDS011;32044;52.386;13.278;2023-02-24T09:30:53;9.23;;;1.98;;
46322;SDS011;32044;52.386;13.278;2023-02-24T09:33:24;7.78;;;2.20;;
46322;SDS011;32044;52.386;13.278;2023-02-24T09:35:55;8.70;;;2.55;;
46322;SDS011;32044;52.386;13.278;2023-02-24T09:38:35;10.57;;;2.33;;
46322;SDS011;32044;52.386;13.278;2023-02-24T09:41:22;7.57;;;2.15;;
46322;SDS011;32044;52.386;13.278;2023-02-24T09:43:59;12.48;;;2.50;;
46322;SDS011;32044;52.386;13.278;2023-02-24T09:46:37;10.18;;;2.20;;
46322;SDS011;32044;52.386;13.278;2023-02-24T09:49:11;16.42;;;2.80;;
46322;SDS011;32044;52.386;13.278;2023-02-24T09:51:43;10.65;;;2.28;;
46322;SDS011;32044;52.386;13.278;2023-02-24T09:54:19;7.63;;;1.80;;
46322;SDS011;32044;52.386;13.278;2023-02-24T09:56:50;5.45;;;1.40;;
46322;SDS011;32044;52.386;13.278;2023-02-24T09:59:35;12.30;;;2.50;;
46322;SDS011;32044;52.386;13.278;2023-02-24T10:02:32;11.15;;;2.10;;
46322;SDS011;32044;52.386;13.278;2023-02-24T10:05:13;9.63;;;2.00;;
46322;SDS011;32044;52.386;13.278;2023-02-24T10:07:47;14.63;;;2.22;;
46322;SDS011;32044;52.386;13.278;2023-02-24T10:10:19;7.43;;;1.85;;
46322;SDS011;32044;52.386;13.278;2023-02-24T10:12:55;7.10;;;1.73;;
46322;SDS011;32044;52.386;13.278;2023-02-24T10:15:26;12.95;;;2.65;;
46322;SDS011;32044;52.386;13.278;2023-02-24T10:18:20;9.45;;;1.88;;
46322;SDS011;32044;52.386;13.278;2023-02-24T10:20:53;14.52;;;2.17;;
46322;SDS011;32044;52.386;13.278;2023-02-24T10:23:27;4.90;;;0.88;;
46322;SDS011;32044;52.386;13.278;2023-02-24T10:25:59;10.77;;;1.65;;
46322;SDS011;32044;52.386;13.278;2023-02-24T10:28:34;7.05;;;1.55;;
46322;SDS011;32044;52.386;13.278;2023-02-24T10:31:09;6.25;;;1.38;;
46322;SDS011;32044;52.386;13.278;2023-02-24T10:33:51;9.98;;;1.77;;
46322;SDS011;32044;52.386;13.278;2023-02-24T10:36:22;5.97;;;1.40;;
46322;SDS011;32044;52.386;13.278;2023-02-24T10:38:57;6.13;;;2.15;;
46322;SDS011;32044;52.386;13.278;2023-02-24T10:41:40;7.57;;;2.00;;
46322;SDS011;32044;52.386;13.278;2023-02-24T10:44:11;5.85;;;1.95;;
46322;SDS011;32044;52.386;13.278;2023-02-24T10:46:46;8.50;;;1.75;;
46322;SDS011;32044;52.386;13.278;2023-02-24T10:49:15;9.68;;;1.55;;
46322;SDS011;32044;52.386;13.278;2023-02-24T10:51:46;8.55;;;1.65;;
46322;SDS011;32044;52.386;13.278;2023-02-24T10:54:22;6.80;;;1.52;;
46322;SDS011;32044;52.386;13.278;2023-02-24T10:57:10;7.85;;;1.40;;
46322;SDS011;32044;52.386;13.278;2023-02-24T10:59:45;7.10;;;1.55;;
46322;SDS011;32044;52.386;13.278;2023-02-24T11:02:37;5.97;;;2.15;;
46322;SDS011;32044;52.386;13.278;2023-02-24T11:05:22;6.45;;;1.83;;
46322;SDS011;32044;52.386;13.278;2023-02-24T11:08:13;8.95;;;1.55;;
46322;SDS011;32044;52.386;13.278;2023-02-24T11:11:07;9.07;;;1.75;;
46322;SDS011;32044;52.386;13.278;2023-02-24T11:13:48;8.50;;;2.20;;
46322;SDS011;32044;52.386;13.278;2023-02-24T11:16:41;6.30;;;1.60;;
46322;SDS011;32044;52.386;13.278;2023-02-24T11:19:28;7.05;;;1.73;;
46322;SDS011;32044;52.386;13.278;2023-02-24T11:21:56;10.05;;;2.15;;
46322;SDS011;32044;52.386;13.278;2023-02-24T11:24:24;10.15;;;1.77;;
46322;SDS011;32044;52.386;13.278;2023-02-24T11:26:54;5.90;;;2.00;;
46322;SDS011;32044;52.386;13.278;2023-02-24T11:29:28;9.68;;;1.70;;
46322;SDS011;32044;52.386;13.278;2023-02-24T11:32:07;5.15;;;1.60;;
46322;SDS011;32044;52.386;13.278;2023-02-24T11:34:42;13.30;;;2.30;;
46322;SDS011;32044;52.386;13.278;2023-02-24T11:37:18;5.70;;;1.92;;
46322;SDS011;32044;52.386;13.278;2023-02-24T11:39:54;9.68;;;2.20;;
46322;SDS011;32044;52.386;13.278;2023-02-24T11:42:25;12.20;;;1.75;;
46322;SDS011;32044;52.386;13.278;2023-02-24T11:44:55;5.60;;;1.67;;
46322;SDS011;32044;52.386;13.278;2023-02-24T11:47:27;5.75;;;1.83;;
46322;SDS011;32044;52.386;13.278;2023-02-24T11:50:01;7.22;;;1.50;;
46322;SDS011;32044;52.386;13.278;2023-02-24T11:52:34;11.30;;;1.75;;
46322;SDS011;32044;52.386;13.278;2023-02-24T11:55:04;12.93;;;2.17;;
46322;SDS011;32044;52.386;13.278;2023-02-24T11:57:34;12.95;;;3.45;;
46322;SDS011;32044;52.386;13.278;2023-02-24T12:00:05;8.05;;;2.05;;
46322;SDS011;32044;52.386;13.278;2023-02-24T12:02:40;9.93;;;1.67;;
46322;SDS011;32044;52.386;13.278;2023-02-24T12:05:12;10.52;;;1.92;;
46322;SDS011;32044;52.386;13.278;2023-02-24T12:07:43;6.03;;;2.00;;
46322;SDS011;32044;52.386;13.278;2023-02-24T12:10:15;6.90;;;1.98;;
46322;SDS011;32044;52.386;13.278;2023-02-24T12:12:50;6.95;;;1.60;;
46322;SDS011;32044;52.386;13.278;2023-02-24T12:15:24;5.47;;;1.60;;
46322;SDS011;32044;52.386;13.278;2023-02-24T12:17:57;8.45;;;1.88;;
46322;SDS011;32044;52.386;13.278;2023-02-24T12:20:32;6.70;;;2.13;;
46322;SDS011;32044;52.386;13.278;2023-02-24T12:23:11;6.13;;;1.93;;
46322;SDS011;32044;52.386;13.278;2023-02-24T12:25:47;9.35;;;2.33;;
46322;SDS011;32044;52.386;13.278;2023-02-24T12:28:25;13.02;;;2.40;;
46322;SDS011;32044;52.386;13.278;2023-02-24T12:31:06;8.20;;;2.40;;
46322;SDS011;32044;52.386;13.278;2023-02-24T12:33:43;9.50;;;2.92;;
46322;SDS011;32044;52.386;13.278;2023-02-24T12:36:18;10.35;;;2.95;;
46322;SDS011;32044;52.386;13.278;2023-02-24T12:38:57;5.22;;;2.28;;
46322;SDS011;32044;52.386;13.278;2023-02-24T12:41:35;8.32;;;2.80;;
46322;SDS011;32044;52.386;13.278;2023-02-24T12:44:14;7.85;;;3.42;;
46322;SDS011;32044;52.386;13.278;2023-02-24T12:46:46;11.65;;;3.30;;
46322;SDS011;32044;52.386;13.278;2023-02-24T12:49:32;11.93;;;3.25;;
46322;SDS011;32044;52.386;13.278;2023-02-24T12:52:11;12.10;;;3.00;;
46322;SDS011;32044;52.386;13.278;2023-02-24T12:54:43;6.70;;;2.78;;
46322;SDS011;32044;52.386;13.278;2023-02-24T12:57:15;9.40;;;2.63;;
46322;SDS011;32044;52.386;13.278;2023-02-24T12:59:47;8.35;;;2.65;;
46322;SDS011;32044;52.386;13.278;2023-02-24T13:02:18;11.93;;;3.22;;
46322;SDS011;32044;52.386;13.278;2023-02-24T13:04:51;9.65;;;2.95;;
46322;SDS011;32044;52.386;13.278;2023-02-24T13:07:28;6.60;;;2.33;;
46322;SDS011;32044;52.386;13.278;2023-02-24T13:10:05;8.68;;;2.45;;
46322;SDS011;32044;52.386;13.278;2023-02-24T13:12:39;9.95;;;2.25;;
46322;SDS011;32044;52.386;13.278;2023-02-24T13:15:16;11.52;;;2.38;;
46322;SDS011;32044;52.386;13.278;2023-02-24T13:17:46;4.75;;;2.70;;
46322;SDS011;32044;52.386;13.278;2023-02-24T13:20:26;9.45;;;2.25;;
46322;SDS011;32044;52.386;13.278;2023-02-24T13:22:56;10.15;;;2.58;;
46322;SDS011;32044;52.386;13.278;2023-02-24T13:25:27;5.82;;;2.10;;
46322;SDS011;32044;52.386;13.278;2023-02-24T13:27:57;6.88;;;2.10;;
46322;SDS011;32044;52.386;13.278;2023-02-24T13:33:20;5.53;;;2.17;;
46322;SDS011;32044;52.386;13.278;2023-02-24T13:35:50;5.30;;;2.28;;
46322;SDS011;32044;52.386;13.278;2023-02-24T13:38:23;7.15;;;3.00;;
46322;SDS011;32044;52.386;13.278;2023-02-24T13:40:52;6.03;;;2.47;;
46322;SDS011;32044;52.386;13.278;2023-02-24T13:43:21;9.95;;;2.75;;
46322;SDS011;32044;52.386;13.278;2023-02-24T13:45:56;5.27;;;1.90;;
46322;SDS011;32044;52.386;13.278;2023-02-24T13:48:33;6.28;;;2.92;;
46322;SDS011;32044;52.386;13.278;2023-02-24T13:51:10;5.53;;;2.20;;
46322;SDS011;32044;52.386;13.278;2023-02-24T13:53:50;6.05;;;2.63;;
46322;SDS011;32044;52.386;13.278;2023-02-24T13:56:28;10.55;;;2.50;;
46322;SDS011;32044;52.386;13.278;2023-02-24T13:59:10;8.30;;;2.83;;
46322;SDS011;32044;52.386;13.278;2023-02-24T14:01:47;4.37;;;1.93;;
46322;SDS011;32044;52.386;13.278;2023-02-24T14:04:17;8.18;;;2.75;;
46322;SDS011;32044;52.386;13.278;2023-02-24T14:06:45;5.43;;;2.47;;
46322;SDS011;32044;52.386;13.278;2023-02-24T14:09:15;5.20;;;2.20;;
46322;SDS011;32044;52.386;13.278;2023-02-24T14:11:49;6.78;;;2.72;;
46322;SDS011;32044;52.386;13.278;2023-02-24T14:14:17;5.38;;;2.05;;
46322;SDS011;32044;52.386;13.278;2023-02-24T14:16:45;2.00;;;1.77;;
46322;SDS011;32044;52.386;13.278;2023-02-24T14:19:17;6.45;;;2.15;;
46322;SDS011;32044;52.386;13.278;2023-02-24T14:21:46;4.95;;;2.35;;
46322;SDS011;32044;52.386;13.278;2023-02-24T14:24:16;2.88;;;2.00;;
46322;SDS011;32044;52.386;13.278;2023-02-24T14:26:44;10.85;;;2.40;;
46322;SDS011;32044;52.386;13.278;2023-02-24T14:29:13;5.43;;;1.73;;
46322;SDS011;32044;52.386;13.278;2023-02-24T14:31:45;3.20;;;1.63;;
46322;SDS011;32044;52.386;13.278;2023-02-24T14:34:16;10.65;;;2.70;;
46322;SDS011;32044;52.386;13.278;2023-02-24T14:36:45;6.53;;;2.17;;
46322;SDS011;32044;52.386;13.278;2023-02-24T14:39:14;7.22;;;2.33;;
46322;SDS011;32044;52.386;13.278;2023-02-24T14:41:44;3.20;;;1.98;;
46322;SDS011;32044;52.386;13.278;2023-02-24T14:44:16;3.33;;;1.90;;
46322;SDS011;32044;52.386;13.278;2023-02-24T14:46:47;5.22;;;2.30;;
46322;SDS011;32044;52.386;13.278;2023-02-24T14:49:18;4.35;;;2.20;;
46322;SDS011;32044;52.386;13.278;2023-02-24T14:51:48;3.20;;;2.20;;
46322;SDS011;32044;52.386;13.278;2023-02-24T14:54:19;7.13;;;2.20;;
46322;SDS011;32044;52.386;13.278;2023-02-24T14:56:49;4.22;;;2.28;;
46322;SDS011;32044;52.386;13.278;2023-02-24T14:59:17;4.65;;;2.15;;
46322;SDS011;32044;52.386;13.278;2023-02-24T15:01:50;3.92;;;2.03;;
46322;SDS011;32044;52.386;13.278;2023-02-24T15:04:23;3.40;;;1.75;;
46322;SDS011;32044;52.386;13.278;2023-02-24T15:06:57;3.83;;;1.75;;
46322;SDS011;32044;52.386;13.278;2023-02-24T15:09:25;3.50;;;1.55;;